Weather Models
Both GFS & NAM
00z 06z 12z 18z
24hr Precip
00z 06z 12z 18z
36hr Simulated radar
00z 06z 12z 18z
SKEWT Soundings
00z 12z
Current Conditions (Updated 2:20am on 6/20/19)
Temperature
 72°
-1.24
74°  
72°  
0
10
20
30
40
50
60
70
80
90
100
Dew Point
69°
71°  
69°  
-20
-10
0
10
20
30
40
50
60
70
80
Heat Index
78°
79°  
78°  
30
40
50
60
70
80
90
100
110
120
130
Heat Index
Humidity
90%
91% 
86% 
0
10
20
30
40
50
60
70
80
90
100
Barometer
29.69
   Falling
29.72  
29.69  
28.00
28.30
28.60
28.90
29.20
29.50
29.80
30.10
30.40
30.70
31.00
Temperature
Dew Point
Humidity
Pressure
Wind
6mph
SSE
Daily Rain
.00
.05
.10
.15
.20
.25
.30
.35
.40
.45
.50
Rain Today
 0.28" 
Month Rain
0.00
0.50
1.00
1.50
2.00
2.50
3.00
3.50
4.00
4.50
5.00
Month Rain
 4.03" 
Year Rain
0.00
5.00
10.00
15.00
20.00
25.00
30.00
35.00
40.00
45.00
50.00
Year Rain
 26.58" 
Sun & Moon Data
Sunrise 5:32am
Sunset 8:33pm
Moonrise 11:16pm
Moonset 8:25am
Moon % 94%
Other Rain Data
Past Hour 0.25 Past 24 Hours 0.74
Past 3 Hours 0.28 Past 7 Days 2.48
Past 6 Hours 0.28
Cloud Height
773


Current Front Map
Current Satellite map
7 Day Forecast

Warning: strpos(): Offset not contained in string in /home/jcweat2/public_html/forcast_multi.php on line 678
NWS Forecast for

Forecast blank? Force Update

National Weather Service Forecast for:
Issued by:
Updated:

Philadelphia
 

 

 

Forecast from NOAA-NWS for .

Area Weather Current Conditions
Nearby METAR Reports

KPHL - Philadelphia, Pennsylvania
Updated: Thu, 20-Jun-2019 2:03am EDT
Thunderstorm rain, Mist, Overcast
Thunderstorm rain, Mist, Overcast
 Wind from E
Wind: E 8 mph , 13 km/h
Temperature: 70°F , 21°C
Dew Point: 68°F , 20°C
Humidity: 94%
Barometer: 29.70 inHg , 1005.8 hPa
Summary: Thunderstorm rain, Mist
Clouds: Overcast
Visibility: 3 miles , 5 km
Cloud details: Few Clouds 900 ft
Mostly Cloudy 2100 ft
Overcast 5500 ft
2019/06/20 06:03 KPHL 200603Z 08007KT 3SM R09R/6000VP6000FT TSRA BR FEW009 BKN021CB OVC055 21/20 A2970 RMK AO2 LTG DSNT ALQDS FRQ LTGICCC VC NE DSNT SE DSNT W TS VC NE MOV NE CB DSNT SE DSNT W MOV NE P0008 T02110200 $
KMPO - Mt. Pocono, Pennsylvania
Updated: Thu, 20-Jun-2019 1:53am EDT
Fog, Overcast
Fog, Overcast
 Wind from ESE
Wind: ESE 5 mph , 7 km/h
Temperature: 64°F , 18°C
Dew Point: 64°F , 18°C
Humidity: 100%
Barometer: 29.76 inHg , 1007.8 hPa
Summary: Fog
Clouds: Overcast
Visibility: 1/2 mile , 0.8 km
Cloud details: Overcast 100 ft
2019/06/20 05:53 KMPO 200553Z AUTO 12004KT 1/2SM FG VV001 18/18 A2976 RMK AO2 RAE13 SLP068 P0001 60009 T01780178 10183 20178 56015
 
KACY - Atlantic City, New Jersey
Updated: Thu, 20-Jun-2019 2:11am EDT
Partly Cloudy
Partly Cloudy
 Wind from S
Wind: S 5 mph , 7 km/h
Temperature: 73°F , 23°C
Dew Point: 72°F , 22°C
Humidity: 94%
Barometer: 29.68 inHg , 1005.1 hPa
Clouds: Partly Cloudy
Visibility: 9 miles , 14 km
Cloud details: Partly Cloudy 300 ft
2019/06/20 06:11 KACY 200611Z 18004KT 9SM SCT003 23/22 A2968 RMK AO2 LTG DSNT NW T02280217
KMIV - Millville, New Jersey
Updated: Thu, 20-Jun-2019 1:54am EDT
Partly Cloudy
Partly Cloudy
 Wind from calm
Wind: Calm
Temperature: 73°F , 23°C
Dew Point: 73°F , 23°C
Humidity: 100%
Barometer: 29.68 inHg , 1005.1 hPa
Clouds: Partly Cloudy
Visibility: 10 miles , 16 km
Cloud details: Partly Cloudy 4800 ft
Partly Cloudy 6500 ft
2019/06/20 05:54 KMIV 200554Z AUTO 00000KT 10SM SCT048 SCT065 23/23 A2968 RMK AO2 LTG DSNT N SLP048 T02280228 10250 20228 58013
 
KWWD - Wildwood, New Jersey
Updated: Thu, 20-Jun-2019 1:56am EDT
Overcast
Overcast
 Wind from S
Wind: S 6 mph , 9 km/h
Temperature: 72°F , 22°C
Dew Point: 72°F , 22°C
Humidity: 100%
Barometer: 29.69 inHg , 1005.4 hPa
Clouds: Overcast
Visibility: 8 miles , 13 km
Cloud details: Overcast 200 ft
2019/06/20 05:56 KWWD 200556Z AUTO 18005KT 8SM OVC002 22/22 A2969 RMK AO2 SLP055 T02220217 10233 20222 58015
KDOV - Dover Afb, Delaware
Updated: Thu, 20-Jun-2019 2:06am EDT
Mostly Cloudy
Mostly Cloudy
 Wind from S
Wind: S 7 mph , 11 km/h
Temperature: 75°F , 24°C
Dew Point: 75°F , 24°C
Humidity: 100%
Barometer: 29.66 inHg , 1004.4 hPa
Clouds: Mostly Cloudy
Visibility: 10 miles , 16 km
Cloud details: Mostly Cloudy 800 ft
2019/06/20 06:06 KDOV 200606Z AUTO 17006KT 10SM BKN008 24/24 A2966 RMK AO2 SLP047 $
Severe Weather Map